Terminal Aerodrome Forecast
Issued by NWS

Current Version | Previous Version | Text Only | Print | Product List | Glossary Off
Versions: 1 2 3 4 5 6 7 8 9 10 11 12 13 14 15 16 17 18 19 20

470
FTUS41 KPBZ 271726
TAFMGW
TAF
KMGW 271726Z 2718/2818 VRB06KT P6SM BKN035
     FM280600 15003KT P6SM -SHRA OVC015
     FM280900 18003KT 5SM -SHRA OVC010
     FM281300 23004KT 2SM -DZ BR OVC007=

USA.gov is the U.S. government's official web portal to all federal, state and local government web resources and services.